sensor_id;sensor_type;location;lat;lon;timestamp;pressure;altitude;pressure_sealevel;temperature;humidity
72210;BME280;60113;48.762;12.302;2024-01-06T00:00:35;96014.56;;;2.14;100.00
72210;BME280;60113;48.762;12.302;2024-01-06T00:03:21;96011.97;;;2.14;100.00
72210;BME280;60113;48.762;12.302;2024-01-06T00:06:06;96009.28;;;2.16;100.00
72210;BME280;60113;48.762;12.302;2024-01-06T00:08:52;96010.03;;;2.18;100.00
72210;BME280;60113;48.762;12.302;2024-01-06T00:11:40;96009.94;;;2.19;100.00
72210;BME280;60113;48.762;12.302;2024-01-06T00:14:26;96007.34;;;2.19;100.00
72210;BME280;60113;48.762;12.302;2024-01-06T00:17:11;96003.81;;;2.20;100.00
72210;BME280;60113;48.762;12.302;2024-01-06T00:19:57;96006.41;;;2.20;100.00
72210;BME280;60113;48.762;12.302;2024-01-06T00:22:45;96009.00;;;2.20;100.00
72210;BME280;60113;48.762;12.302;2024-01-06T00:25:31;95999.56;;;2.19;100.00
72210;BME280;60113;48.762;12.302;2024-01-06T00:28:17;96000.50;;;2.18;100.00
72210;BME280;60113;48.762;12.302;2024-01-06T00:31:02;96000.50;;;2.18;100.00
72210;BME280;60113;48.762;12.302;2024-01-06T00:33:48;95995.41;;;2.17;100.00
72210;BME280;60113;48.762;12.302;2024-01-06T00:36:34;95992.81;;;2.17;100.00
72210;BME280;60113;48.762;12.302;2024-01-06T00:39:19;95994.47;;;2.18;100.00
72210;BME280;60113;48.762;12.302;2024-01-06T00:42:05;95997.06;;;2.18;100.00
72210;BME280;60113;48.762;12.302;2024-01-06T00:44:51;96000.50;;;2.18;100.00
72210;BME280;60113;48.762;12.302;2024-01-06T00:47:37;96010.03;;;2.18;100.00
72210;BME280;60113;48.762;12.302;2024-01-06T00:50:23;96000.50;;;2.18;100.00
72210;BME280;60113;48.762;12.302;2024-01-06T00:53:09;96009.00;;;2.20;100.00
72210;BME280;60113;48.762;12.302;2024-01-06T00:55:54;96010.78;;;2.20;100.00
72210;BME280;60113;48.762;12.302;2024-01-06T00:58:40;96009.84;;;2.21;100.00
72210;BME280;60113;48.762;12.302;2024-01-06T01:01:26;96017.63;;;2.21;100.00
72210;BME280;60113;48.762;12.302;2024-01-06T01:04:11;96020.94;;;2.23;100.00
72210;BME280;60113;48.762;12.302;2024-01-06T01:06:57;96025.28;;;2.22;100.00
72210;BME280;60113;48.762;12.302;2024-01-06T01:09:43;96021.75;;;2.23;100.00
72210;BME280;60113;48.762;12.302;2024-01-06T01:12:28;96025.19;;;2.24;100.00
72210;BME280;60113;48.762;12.302;2024-01-06T01:15:14;96027.69;;;2.25;100.00
72210;BME280;60113;48.762;12.302;2024-01-06T01:18:00;96018.25;;;2.24;100.00
72210;BME280;60113;48.762;12.302;2024-01-06T01:20:46;96030.19;;;2.27;100.00
72210;BME280;60113;48.762;12.302;2024-01-06T01:23:31;96019.81;;;2.27;100.00
72210;BME280;60113;48.762;12.302;2024-01-06T01:26:17;96009.34;;;2.29;100.00
72210;BME280;60113;48.762;12.302;2024-01-06T01:29:03;96011.84;;;2.30;100.00
72210;BME280;60113;48.762;12.302;2024-01-06T01:31:48;96013.59;;;2.30;100.00
72210;BME280;60113;48.762;12.302;2024-01-06T01:34:34;96003.22;;;2.30;100.00
72210;BME280;60113;48.762;12.302;2024-01-06T01:37:20;96005.00;;;2.29;100.00
72210;BME280;60113;48.762;12.302;2024-01-06T01:40:06;96004.19;;;2.29;100.00
72210;BME280;60113;48.762;12.302;2024-01-06T01:42:52;96002.44;;;2.29;100.00
72210;BME280;60113;48.762;12.302;2024-01-06T01:45:38;96005.81;;;2.30;100.00
72210;BME280;60113;48.762;12.302;2024-01-06T01:48:24;96005.94;;;2.28;100.00
72210;BME280;60113;48.762;12.302;2024-01-06T01:51:10;96014.53;;;2.29;100.00
72210;BME280;60113;48.762;12.302;2024-01-06T01:53:57;96009.34;;;2.29;100.00
72210;BME280;60113;48.762;12.302;2024-01-06T01:56:43;96005.09;;;2.28;100.00
72210;BME280;60113;48.762;12.302;2024-01-06T01:59:29;96008.50;;;2.28;100.00
72210;BME280;60113;48.762;12.302;2024-01-06T02:02:15;96003.34;;;2.28;100.00
72210;BME280;60113;48.762;12.302;2024-01-06T02:05:02;96007.59;;;2.29;100.00
72210;BME280;60113;48.762;12.302;2024-01-06T02:07:48;96005.72;;;2.31;100.00
72210;BME280;60113;48.762;12.302;2024-01-06T02:10:36;96001.38;;;2.32;100.00
72210;BME280;60113;48.762;12.302;2024-01-06T02:13:22;95995.38;;;2.31;100.00
72210;BME280;60113;48.762;12.302;2024-01-06T02:16:09;96010.72;;;2.34;100.00
72210;BME280;60113;48.762;12.302;2024-01-06T02:18:54;96003.97;;;2.32;100.00
72210;BME280;60113;48.762;12.302;2024-01-06T02:21:43;96017.03;;;2.30;100.00
72210;BME280;60113;48.762;12.302;2024-01-06T02:24:29;96012.69;;;2.31;100.00
72210;BME280;60113;48.762;12.302;2024-01-06T02:27:15;96004.06;;;2.30;100.00
72210;BME280;60113;48.762;12.302;2024-01-06T02:30:01;96006.56;;;2.32;100.00
72210;BME280;60113;48.762;12.302;2024-01-06T02:32:46;96016.75;;;2.35;100.00
72210;BME280;60113;48.762;12.302;2024-01-06T02:35:32;96007.22;;;2.35;100.00
72210;BME280;60113;48.762;12.302;2024-01-06T02:38:18;96014.81;;;2.39;100.00
72210;BME280;60113;48.762;12.302;2024-01-06T02:41:04;96016.75;;;2.35;100.00
72210;BME280;60113;48.762;12.302;2024-01-06T02:43:49;96009.06;;;2.33;100.00
72210;BME280;60113;48.762;12.302;2024-01-06T02:46:35;96012.50;;;2.34;100.00
72210;BME280;60113;48.762;12.302;2024-01-06T02:49:21;96017.88;;;2.31;100.00
72210;BME280;60113;48.762;12.302;2024-01-06T02:52:07;96019.63;;;2.30;100.00
72210;BME280;60113;48.762;12.302;2024-01-06T02:54:52;96014.53;;;2.29;100.00
72210;BME280;60113;48.762;12.302;2024-01-06T02:57:38;96017.97;;;2.29;100.00
72210;BME280;60113;48.762;12.302;2024-01-06T03:00:24;96016.47;;;2.25;100.00
72210;BME280;60113;48.762;12.302;2024-01-06T03:03:10;96017.31;;;2.25;100.00
72210;BME280;60113;48.762;12.302;2024-01-06T03:05:56;96015.56;;;2.26;100.00
72210;BME280;60113;48.762;12.302;2024-01-06T03:08:42;96019.81;;;2.27;100.00
72210;BME280;60113;48.762;12.302;2024-01-06T03:11:29;96016.28;;;2.28;100.00
72210;BME280;60113;48.762;12.302;2024-01-06T03:14:14;96017.13;;;2.29;100.00
72210;BME280;60113;48.762;12.302;2024-01-06T03:17:00;96019.72;;;2.29;100.00
72210;BME280;60113;48.762;12.302;2024-01-06T03:19:46;96015.56;;;2.26;100.00
72210;BME280;60113;48.762;12.302;2024-01-06T03:22:32;96019.81;;;2.27;100.00
72210;BME280;60113;48.762;12.302;2024-01-06T03:25:17;96011.09;;;2.28;100.00
72210;BME280;60113;48.762;12.302;2024-01-06T03:28:03;96014.53;;;2.29;100.00
72210;BME280;60113;48.762;12.302;2024-01-06T03:30:49;96013.59;;;2.30;100.00
72210;BME280;60113;48.762;12.302;2024-01-06T03:33:35;96018.69;;;2.31;100.00
72210;BME280;60113;48.762;12.302;2024-01-06T03:36:22;96023.88;;;2.31;100.00
72210;BME280;60113;48.762;12.302;2024-01-06T03:39:08;96018.59;;;2.33;100.00
72210;BME280;60113;48.762;12.302;2024-01-06T03:41:53;96017.78;;;2.32;100.00
72210;BME280;60113;48.762;12.302;2024-01-06T03:44:39;96017.78;;;2.32;100.00
72210;BME280;60113;48.762;12.302;2024-01-06T03:47:25;96016.94;;;2.32;100.00
72210;BME280;60113;48.762;12.302;2024-01-06T03:50:11;96006.56;;;2.32;100.00
72210;BME280;60113;48.762;12.302;2024-01-06T03:52:57;96012.59;;;2.32;100.00
72210;BME280;60113;48.762;12.302;2024-01-06T03:55:42;96019.53;;;2.32;100.00
72210;BME280;60113;48.762;12.302;2024-01-06T03:58:28;96018.69;;;2.31;100.00
72210;BME280;60113;48.762;12.302;2024-01-06T04:01:14;96015.28;;;2.31;100.00
72210;BME280;60113;48.762;12.302;2024-01-06T04:04:01;96018.69;;;2.31;100.00
72210;BME280;60113;48.762;12.302;2024-01-06T04:06:47;96020.47;;;2.31;100.00
72210;BME280;60113;48.762;12.302;2024-01-06T04:09:33;96027.31;;;2.32;100.00
72210;BME280;60113;48.762;12.302;2024-01-06T04:12:18;96028.25;;;2.31;100.00
72210;BME280;60113;48.762;12.302;2024-01-06T04:15:04;96030.84;;;2.31;100.00
72210;BME280;60113;48.762;12.302;2024-01-06T04:17:50;96029.91;;;2.32;100.00
72210;BME280;60113;48.762;12.302;2024-01-06T04:20:37;96029.06;;;2.31;100.00
72210;BME280;60113;48.762;12.302;2024-01-06T04:23:23;96031.56;;;2.33;100.00
72210;BME280;60113;48.762;12.302;2024-01-06T04:26:09;96029.81;;;2.33;100.00
72210;BME280;60113;48.762;12.302;2024-01-06T04:28:55;96036.66;;;2.34;100.00
72210;BME280;60113;48.762;12.302;2024-01-06T04:31:41;96033.16;;;2.35;100.00
72210;BME280;60113;48.762;12.302;2024-01-06T04:34:27;96036.56;;;2.36;100.00
72210;BME280;60113;48.762;12.302;2024-01-06T04:37:12;96041.75;;;2.36;100.00
72210;BME280;60113;48.762;12.302;2024-01-06T04:39:58;96050.38;;;2.36;100.00
72210;BME280;60113;48.762;12.302;2024-01-06T04:42:44;96045.19;;;2.36;100.00
72210;BME280;60113;48.762;12.302;2024-01-06T04:45:30;96050.38;;;2.36;100.00
72210;BME280;60113;48.762;12.302;2024-01-06T04:48:15;96051.19;;;2.37;100.00
72210;BME280;60113;48.762;12.302;2024-01-06T04:51:01;96041.66;;;2.37;100.00
72210;BME280;60113;48.762;12.302;2024-01-06T04:53:48;96053.69;;;2.39;100.00
72210;BME280;60113;48.762;12.302;2024-01-06T04:56:34;96048.50;;;2.39;100.00
72210;BME280;60113;48.762;12.302;2024-01-06T04:59:20;96049.31;;;2.39;100.00
72210;BME280;60113;48.762;12.302;2024-01-06T05:02:06;96051.09;;;2.39;100.00
72210;BME280;60113;48.762;12.302;2024-01-06T05:04:52;96066.56;;;2.40;100.00
72210;BME280;60113;48.762;12.302;2024-01-06T05:07:38;96063.97;;;2.40;100.00
72210;BME280;60113;48.762;12.302;2024-01-06T05:10:23;96068.22;;;2.41;100.00
72210;BME280;60113;48.762;12.302;2024-01-06T05:13:09;96066.56;;;2.40;100.00
72210;BME280;60113;48.762;12.302;2024-01-06T05:15:55;96080.34;;;2.41;100.00
72210;BME280;60113;48.762;12.302;2024-01-06T05:18:40;96079.44;;;2.42;100.00
72210;BME280;60113;48.762;12.302;2024-01-06T05:21:26;96082.94;;;2.41;100.00
72210;BME280;60113;48.762;12.302;2024-01-06T05:24:12;96082.84;;;2.42;100.00
72210;BME280;60113;48.762;12.302;2024-01-06T05:26:58;96085.44;;;2.42;100.00
72210;BME280;60113;48.762;12.302;2024-01-06T05:29:45;96077.66;;;2.42;100.00
72210;BME280;60113;48.762;12.302;2024-01-06T05:32:30;96084.63;;;2.42;100.00
72210;BME280;60113;48.762;12.302;2024-01-06T05:35:16;96082.03;;;2.42;100.00
72210;BME280;60113;48.762;12.302;2024-01-06T05:38:02;96087.22;;;2.42;100.00
72210;BME280;60113;48.762;12.302;2024-01-06T05:40:49;96085.44;;;2.42;100.00
72210;BME280;60113;48.762;12.302;2024-01-06T05:43:35;96095.81;;;2.42;100.00
72210;BME280;60113;48.762;12.302;2024-01-06T05:46:24;96097.50;;;2.43;100.00
72210;BME280;60113;48.762;12.302;2024-01-06T05:49:10;96098.41;;;2.42;100.00
72210;BME280;60113;48.762;12.302;2024-01-06T05:51:56;96087.94;;;2.44;100.00
72210;BME280;60113;48.762;12.302;2024-01-06T05:54:41;96093.22;;;2.42;100.00
72210;BME280;60113;48.762;12.302;2024-01-06T05:57:30;96096.66;;;2.43;100.00
72210;BME280;60113;48.762;12.302;2024-01-06T06:00:16;96107.03;;;2.43;100.00
72210;BME280;60113;48.762;12.302;2024-01-06T06:03:02;96107.03;;;2.43;100.00
72210;BME280;60113;48.762;12.302;2024-01-06T06:05:48;96107.88;;;2.43;100.00
72210;BME280;60113;48.762;12.302;2024-01-06T06:08:34;96121.75;;;2.42;100.00
72210;BME280;60113;48.762;12.302;2024-01-06T06:11:20;96123.53;;;2.42;100.00
72210;BME280;60113;48.762;12.302;2024-01-06T06:14:06;96133.88;;;2.42;100.00
72210;BME280;60113;48.762;12.302;2024-01-06T06:16:51;96133.88;;;2.42;100.00
72210;BME280;60113;48.762;12.302;2024-01-06T06:19:37;96134.00;;;2.40;100.00
72210;BME280;60113;48.762;12.302;2024-01-06T06:22:23;96138.31;;;2.40;100.00
72210;BME280;60113;48.762;12.302;2024-01-06T06:25:09;96136.66;;;2.39;100.00
72210;BME280;60113;48.762;12.302;2024-01-06T06:27:55;96135.81;;;2.38;100.00
72210;BME280;60113;48.762;12.302;2024-01-06T06:30:40;96136.84;;;2.35;100.00
72210;BME280;60113;48.762;12.302;2024-01-06T06:33:26;96140.16;;;2.37;100.00
72210;BME280;60113;48.762;12.302;2024-01-06T06:36:12;96146.28;;;2.36;100.00
72210;BME280;60113;48.762;12.302;2024-01-06T06:38:57;96158.41;;;2.36;100.00
72210;BME280;60113;48.762;12.302;2024-01-06T06:41:44;96159.34;;;2.35;100.00
72210;BME280;60113;48.762;12.302;2024-01-06T06:44:30;96166.28;;;2.34;100.00
72210;BME280;60113;48.762;12.302;2024-01-06T06:47:15;96177.59;;;2.33;100.00
72210;BME280;60113;48.762;12.302;2024-01-06T06:50:01;96175.84;;;2.34;100.00
72210;BME280;60113;48.762;12.302;2024-01-06T06:52:47;96180.94;;;2.35;100.00
72210;BME280;60113;48.762;12.302;2024-01-06T06:55:33;96176.84;;;2.31;100.00
72210;BME280;60113;48.762;12.302;2024-01-06T06:58:18;96188.06;;;2.32;100.00
72210;BME280;60113;48.762;12.302;2024-01-06T07:01:04;96187.28;;;2.30;100.00
72210;BME280;60113;48.762;12.302;2024-01-06T07:03:51;96197.56;;;2.31;100.00
72210;BME280;60113;48.762;12.302;2024-01-06T07:06:36;96191.56;;;2.31;100.00
72210;BME280;60113;48.762;12.302;2024-01-06T07:09:22;96196.09;;;2.27;100.00
72210;BME280;60113;48.762;12.302;2024-01-06T07:12:10;96199.81;;;2.23;100.00
72210;BME280;60113;48.762;12.302;2024-01-06T07:14:56;96197.31;;;2.21;100.00
72210;BME280;60113;48.762;12.302;2024-01-06T07:17:43;96198.22;;;2.20;100.00
72210;BME280;60113;48.762;12.302;2024-01-06T07:20:29;96197.50;;;2.18;100.00
72210;BME280;60113;48.762;12.302;2024-01-06T07:23:15;96208.75;;;2.17;100.00
72210;BME280;60113;48.762;12.302;2024-01-06T07:26:01;96208.84;;;2.16;100.00
72210;BME280;60113;48.762;12.302;2024-01-06T07:28:46;96207.19;;;2.15;100.00
72210;BME280;60113;48.762;12.302;2024-01-06T07:31:32;96209.78;;;2.15;100.00
72210;BME280;60113;48.762;12.302;2024-01-06T07:34:18;96211.53;;;2.14;100.00
72210;BME280;60113;48.762;12.302;2024-01-06T07:37:03;96212.47;;;2.13;100.00
72210;BME280;60113;48.762;12.302;2024-01-06T07:39:49;96208.22;;;2.12;100.00
72210;BME280;60113;48.762;12.302;2024-01-06T07:42:37;96209.88;;;2.13;100.00
72210;BME280;60113;48.762;12.302;2024-01-06T07:45:23;96204.78;;;2.11;100.00
72210;BME280;60113;48.762;12.302;2024-01-06T07:48:09;96214.31;;;2.11;100.00
72210;BME280;60113;48.762;12.302;2024-01-06T07:50:54;96212.56;;;2.11;100.00
72210;BME280;60113;48.762;12.302;2024-01-06T07:53:40;96214.31;;;2.11;100.00
72210;BME280;60113;48.762;12.302;2024-01-06T07:56:26;96224.66;;;2.11;100.00
72210;BME280;60113;48.762;12.302;2024-01-06T07:59:12;96216.09;;;2.10;100.00
72210;BME280;60113;48.762;12.302;2024-01-06T08:01:59;96224.59;;;2.12;100.00
72210;BME280;60113;48.762;12.302;2024-01-06T08:04:44;96223.69;;;2.14;100.00
72210;BME280;60113;48.762;12.302;2024-01-06T08:07:30;96219.22;;;2.16;100.00
72210;BME280;60113;48.762;12.302;2024-01-06T08:10:16;96220.91;;;2.17;100.00
72210;BME280;60113;48.762;12.302;2024-01-06T08:13:02;96232.75;;;2.21;100.00
72210;BME280;60113;48.762;12.302;2024-01-06T08:15:52;96237.00;;;2.22;100.00
72210;BME280;60113;48.762;12.302;2024-01-06T08:18:38;96246.47;;;2.23;100.00
72210;BME280;60113;48.762;12.302;2024-01-06T08:21:23;96244.59;;;2.25;100.00
72210;BME280;60113;48.762;12.302;2024-01-06T08:24:09;96248.88;;;2.26;100.00
72210;BME280;60113;48.762;12.302;2024-01-06T08:26:55;96258.31;;;2.27;100.00
72210;BME280;60113;48.762;12.302;2024-01-06T08:29:40;96262.38;;;2.31;100.00
72210;BME280;60113;48.762;12.302;2024-01-06T08:32:26;96265.84;;;2.32;100.00
72210;BME280;60113;48.762;12.302;2024-01-06T08:35:12;96266.59;;;2.34;100.00
72210;BME280;60113;48.762;12.302;2024-01-06T08:37:58;96270.84;;;2.35;100.00
72210;BME280;60113;48.762;12.302;2024-01-06T08:40:47;96268.06;;;2.38;100.00
72210;BME280;60113;48.762;12.302;2024-01-06T08:43:33;96280.09;;;2.39;100.00
72210;BME280;60113;48.762;12.302;2024-01-06T08:46:19;96275.66;;;2.41;100.00
72210;BME280;60113;48.762;12.302;2024-01-06T08:49:05;96286.78;;;2.43;100.00
72210;BME280;60113;48.762;12.302;2024-01-06T08:51:51;96284.03;;;2.46;100.00
72210;BME280;60113;48.762;12.302;2024-01-06T08:54:36;96287.25;;;2.50;100.00
72210;BME280;60113;48.762;12.302;2024-01-06T08:57:22;96291.44;;;2.53;100.00
72210;BME280;60113;48.762;12.302;2024-01-06T09:00:08;96290.41;;;2.55;100.00
72210;BME280;60113;48.762;12.302;2024-01-06T09:02:55;96294.56;;;2.58;100.00
72210;BME280;60113;48.762;12.302;2024-01-06T09:05:41;96297.06;;;2.59;100.00
72210;BME280;60113;48.762;12.302;2024-01-06T09:08:27;96295.25;;;2.61;100.00
72210;BME280;60113;48.762;12.302;2024-01-06T09:11:13;96293.31;;;2.65;100.00
72210;BME280;60113;48.762;12.302;2024-01-06T09:13:58;96292.28;;;2.68;100.00
72210;BME280;60113;48.762;12.302;2024-01-06T09:16:44;96293.66;;;2.73;100.00
72210;BME280;60113;48.762;12.302;2024-01-06T09:19:30;96291.81;;;2.75;100.00
72210;BME280;60113;48.762;12.302;2024-01-06T09:22:16;96295.13;;;2.78;100.00
72210;BME280;60113;48.762;12.302;2024-01-06T09:25:02;96298.56;;;2.78;100.00
72210;BME280;60113;48.762;12.302;2024-01-06T09:27:48;96296.75;;;2.80;100.00
72210;BME280;60113;48.762;12.302;2024-01-06T09:30:33;96299.25;;;2.82;100.00
72210;BME280;60113;48.762;12.302;2024-01-06T09:33:19;96301.66;;;2.85;100.00
72210;BME280;60113;48.762;12.302;2024-01-06T09:36:05;96307.66;;;2.85;100.00
72210;BME280;60113;48.762;12.302;2024-01-06T09:38:51;96304.06;;;2.88;100.00
72210;BME280;60113;48.762;12.302;2024-01-06T09:41:37;96309.34;;;2.86;100.00
72210;BME280;60113;48.762;12.302;2024-01-06T09:44:24;96309.34;;;2.86;100.00
72210;BME280;60113;48.762;12.302;2024-01-06T09:47:11;96321.38;;;2.87;100.00
72210;BME280;60113;48.762;12.302;2024-01-06T09:49:59;96319.44;;;2.91;100.00
72210;BME280;60113;48.762;12.302;2024-01-06T09:52:47;96317.66;;;2.92;100.00
72210;BME280;60113;48.762;12.302;2024-01-06T09:55:41;96321.00;;;2.94;100.00
72210;BME280;60113;48.762;12.302;2024-01-06T09:58:27;96311.56;;;2.93;100.00
72210;BME280;60113;48.762;12.302;2024-01-06T10:01:17;96316.00;;;2.91;100.00
72210;BME280;60113;48.762;12.302;2024-01-06T10:04:03;96304.88;;;2.88;100.00
72210;BME280;60113;48.762;12.302;2024-01-06T10:06:49;96310.06;;;2.88;100.00
72210;BME280;60113;48.762;12.302;2024-01-06T10:09:35;96308.31;;;2.89;100.00
72210;BME280;60113;48.762;12.302;2024-01-06T10:12:24;96303.03;;;2.91;100.00
72210;BME280;60113;48.762;12.302;2024-01-06T10:15:11;96313.41;;;2.91;100.00
72210;BME280;60113;48.762;12.302;2024-01-06T10:17:57;96309.88;;;2.92;100.00
72210;BME280;60113;48.762;12.302;2024-01-06T10:20:45;96303.69;;;2.94;100.00
72210;BME280;60113;48.762;12.302;2024-01-06T10:23:33;96305.44;;;2.94;100.00
72210;BME280;60113;48.762;12.302;2024-01-06T10:26:19;96304.50;;;2.95;100.00
72210;BME280;60113;48.762;12.302;2024-01-06T10:29:05;96313.31;;;2.92;100.00
72210;BME280;60113;48.762;12.302;2024-01-06T10:31:51;96309.88;;;2.92;100.00
72210;BME280;60113;48.762;12.302;2024-01-06T10:34:37;96318.50;;;2.92;100.00
72210;BME280;60113;48.762;12.302;2024-01-06T10:37:24;96311.56;;;2.93;100.00
72210;BME280;60113;48.762;12.302;2024-01-06T10:40:14;96315.81;;;2.94;100.00
72210;BME280;60113;48.762;12.302;2024-01-06T10:43:03;96302.66;;;2.97;100.00
72210;BME280;60113;48.762;12.302;2024-01-06T10:45:51;96310.44;;;2.97;100.00
72210;BME280;60113;48.762;12.302;2024-01-06T10:48:38;96309.50;;;2.98;100.00
72210;BME280;60113;48.762;12.302;2024-01-06T10:51:28;96299.03;;;2.99;100.00
72210;BME280;60113;48.762;12.302;2024-01-06T10:54:17;96292.00;;;3.02;100.00
72210;BME280;60113;48.762;12.302;2024-01-06T10:57:04;96295.25;;;3.05;100.00
72210;BME280;60113;48.762;12.302;2024-01-06T10:59:52;96300.44;;;3.05;100.00
72210;BME280;60113;48.762;12.302;2024-01-06T11:02:39;96299.41;;;3.08;100.00
72210;BME280;60113;48.762;12.302;2024-01-06T11:05:25;96288.09;;;3.09;100.00
72210;BME280;60113;48.762;12.302;2024-01-06T11:08:11;96293.38;;;3.07;100.00
72210;BME280;60113;48.762;12.302;2024-01-06T11:10:58;96289.78;;;3.10;100.00
72210;BME280;60113;48.762;12.302;2024-01-06T11:13:44;96280.22;;;3.10;100.00
72210;BME280;60113;48.762;12.302;2024-01-06T11:16:35;96285.41;;;3.10;100.00
72210;BME280;60113;48.762;12.302;2024-01-06T11:22:30;96282.72;;;3.12;100.00
72210;BME280;60113;48.762;12.302;2024-01-06T11:25:22;96284.50;;;3.11;100.00
72210;BME280;60113;48.762;12.302;2024-01-06T11:28:08;96291.44;;;3.11;100.00
72210;BME280;60113;48.762;12.302;2024-01-06T11:31:10;96291.44;;;3.11;100.00
72210;BME280;60113;48.762;12.302;2024-01-06T11:33:55;96284.88;;;3.05;100.00
72210;BME280;60113;48.762;12.302;2024-01-06T11:36:46;96290.06;;;3.05;100.00
72210;BME280;60113;48.762;12.302;2024-01-06T11:39:37;96290.16;;;3.04;100.00
72210;BME280;60113;48.762;12.302;2024-01-06T11:42:32;96285.78;;;3.04;100.00
72210;BME280;60113;48.762;12.302;2024-01-06T11:45:18;96279.88;;;3.02;100.00
72210;BME280;60113;48.762;12.302;2024-01-06T11:48:05;96278.19;;;3.01;100.00
72210;BME280;60113;48.762;12.302;2024-01-06T11:50:51;96279.97;;;3.00;100.00
72210;BME280;60113;48.762;12.302;2024-01-06T11:53:37;96280.78;;;3.01;100.00
72210;BME280;60113;48.762;12.302;2024-01-06T11:56:23;96284.13;;;3.03;100.00
72210;BME280;60113;48.762;12.302;2024-01-06T11:59:10;96282.38;;;3.04;100.00
72210;BME280;60113;48.762;12.302;2024-01-06T12:01:56;96278.84;;;3.05;100.00
72210;BME280;60113;48.762;12.302;2024-01-06T12:04:41;96285.69;;;3.06;100.00
72210;BME280;60113;48.762;12.302;2024-01-06T12:07:27;96284.88;;;3.05;100.00
72210;BME280;60113;48.762;12.302;2024-01-06T12:10:13;96280.50;;;3.06;100.00
72210;BME280;60113;48.762;12.302;2024-01-06T12:13:04;96270.13;;;3.06;100.00
72210;BME280;60113;48.762;12.302;2024-01-06T12:15:50;96270.97;;;3.06;100.00
72210;BME280;60113;48.762;12.302;2024-01-06T12:18:36;96276.16;;;3.06;100.00
72210;BME280;60113;48.762;12.302;2024-01-06T12:21:23;96269.22;;;3.07;100.00
72210;BME280;60113;48.762;12.302;2024-01-06T12:24:16;96267.50;;;3.06;100.00
72210;BME280;60113;48.762;12.302;2024-01-06T12:27:03;96270.13;;;3.06;100.00
72210;BME280;60113;48.762;12.302;2024-01-06T12:29:49;96271.06;;;3.05;100.00
72210;BME280;60113;48.762;12.302;2024-01-06T12:32:34;96265.75;;;3.06;100.00
72210;BME280;60113;48.762;12.302;2024-01-06T12:35:21;96266.69;;;3.05;100.00
72210;BME280;60113;48.762;12.302;2024-01-06T12:38:09;96265.09;;;3.03;100.00
72210;BME280;60113;48.762;12.302;2024-01-06T12:40:56;96261.78;;;3.00;100.00
72210;BME280;60113;48.762;12.302;2024-01-06T12:43:41;96256.69;;;2.99;100.00
72210;BME280;60113;48.762;12.302;2024-01-06T12:46:27;96259.38;;;2.97;100.00
72210;BME280;60113;48.762;12.302;2024-01-06T12:49:13;96259.38;;;2.97;100.00
72210;BME280;60113;48.762;12.302;2024-01-06T12:51:59;96253.34;;;2.97;100.00
72210;BME280;60113;48.762;12.302;2024-01-06T12:54:45;96247.41;;;2.95;100.00
72210;BME280;60113;48.762;12.302;2024-01-06T12:57:31;96256.78;;;2.97;100.00
72210;BME280;60113;48.762;12.302;2024-01-06T13:00:17;96258.44;;;2.98;100.00
72210;BME280;60113;48.762;12.302;2024-01-06T13:03:03;96258.44;;;2.98;100.00
72210;BME280;60113;48.762;12.302;2024-01-06T13:05:50;96267.97;;;2.98;100.00
72210;BME280;60113;48.762;12.302;2024-01-06T13:08:36;96263.72;;;2.97;100.00
72210;BME280;60113;48.762;12.302;2024-01-06T13:11:22;96259.47;;;2.96;100.00
72210;BME280;60113;48.762;12.302;2024-01-06T13:14:08;96265.56;;;2.95;100.00
72210;BME280;60113;48.762;12.302;2024-01-06T13:16:54;96264.75;;;2.94;100.00
72210;BME280;60113;48.762;12.302;2024-01-06T13:19:39;96270.13;;;2.91;100.00
72210;BME280;60113;48.762;12.302;2024-01-06T13:22:25;96286.63;;;2.90;100.00
72210;BME280;60113;48.762;12.302;2024-01-06T13:25:11;96273.81;;;2.87;100.00
72210;BME280;60113;48.762;12.302;2024-01-06T13:27:57;96283.47;;;2.85;100.00
72210;BME280;60113;48.762;12.302;2024-01-06T13:30:43;96274.09;;;2.82;100.00
72210;BME280;60113;48.762;12.302;2024-01-06T13:33:28;96282.81;;;2.81;100.00
72210;BME280;60113;48.762;12.302;2024-01-06T13:36:14;96283.84;;;2.79;100.00
72210;BME280;60113;48.762;12.302;2024-01-06T13:39:03;96281.25;;;2.79;100.00
72210;BME280;60113;48.762;12.302;2024-01-06T13:41:50;96276.97;;;2.78;100.00
72210;BME280;60113;48.762;12.302;2024-01-06T13:44:35;96290.03;;;2.76;100.00
72210;BME280;60113;48.762;12.302;2024-01-06T13:47:21;96296.16;;;2.75;100.00
72210;BME280;60113;48.762;12.302;2024-01-06T13:50:08;96297.09;;;2.74;100.00
72210;BME280;60113;48.762;12.302;2024-01-06T13:52:54;96295.41;;;2.73;100.00
72210;BME280;60113;48.762;12.302;2024-01-06T13:55:40;96302.28;;;2.74;100.00
72210;BME280;60113;48.762;12.302;2024-01-06T13:58:25;96287.53;;;2.74;100.00
72210;BME280;60113;48.762;12.302;2024-01-06T14:01:11;96303.84;;;2.77;100.00
72210;BME280;60113;48.762;12.302;2024-01-06T14:03:57;96302.09;;;2.77;100.00
72210;BME280;60113;48.762;12.302;2024-01-06T14:06:43;96309.91;;;2.77;100.00
72210;BME280;60113;48.762;12.302;2024-01-06T14:09:29;96310.72;;;2.78;100.00
72210;BME280;60113;48.762;12.302;2024-01-06T14:12:14;96307.28;;;2.77;100.00
72210;BME280;60113;48.762;12.302;2024-01-06T14:15:00;96301.25;;;2.77;100.00
72210;BME280;60113;48.762;12.302;2024-01-06T14:17:46;96303.09;;;2.74;100.00
72210;BME280;60113;48.762;12.302;2024-01-06T14:20:36;96304.78;;;2.75;100.00
72210;BME280;60113;48.762;12.302;2024-01-06T14:23:23;96305.69;;;2.74;100.00
72210;BME280;60113;48.762;12.302;2024-01-06T14:26:10;96303.19;;;2.73;100.00
72210;BME280;60113;48.762;12.302;2024-01-06T14:28:56;96310.25;;;2.71;100.00
72210;BME280;60113;48.762;12.302;2024-01-06T14:31:43;96314.59;;;2.70;100.00